Time;durP1;ratioP1;P1;durP2;ratioP2;P2;SDS_P1;SDS_P2;PMS_P1;PMS_P2;Temp;Humidity;BMP_temperature;BMP_pressure;BME280_temperature;BME280_humidity;BME280_pressure;Samples;Min_cycle;Max_cycle;Signal;HPM_P1;HPM_P2
2022/11/05 13:59:58;;;;;;;;;4.00;4.00;;;;;11.86;64.73;101466.59;5084017;27;46025;-63
2022/11/05 14:02:28;;;;;;;;;5.50;3.75;;;;;12.06;64.83;101473.75;5089159;27;45399;-63
2022/11/05 14:05:05;;;;;;;;;5.33;4.00;;;;;12.23;64.35;101472.13;5090849;27;45398;-64
2022/11/05 14:07:35;;;;;;;;;3.67;3.00;;;;;12.08;64.16;101433.53;5091160;27;45406;-63
2022/11/05 14:10:19;;;;;;;;;5.33;4.00;;;;;12.48;63.67;101480.16;5089652;27;45854;-63
2022/11/05 14:12:49;;;;;;;;;7.00;4.00;;;;;12.60;63.29;101468.84;5086738;27;45512;-63
2022/11/05 14:15:22;;;;;;;;;6.00;3.33;;;;;12.70;62.96;101474.16;5087369;27;45879;-65
2022/11/05 14:18:29;;;;;;;;;5.33;4.67;;;;;12.83;62.55;101467.19;5086549;27;45373;-65
2022/11/05 14:21:00;;;;;;;;;5.67;4.00;;;;;12.90;63.00;101468.97;5085050;27;46405;-62
2022/11/05 14:23:29;;;;;;;;;7.33;4.00;;;;;12.97;62.45;101463.75;5085340;27;45402;-63
2022/11/05 14:26:21;;;;;;;;;3.00;3.00;;;;;13.02;62.57;101470.78;5082376;27;45543;-65
2022/11/05 14:28:49;;;;;;;;;4.00;4.00;;;;;12.87;62.18;101439.19;5090469;27;45730;-64
2022/11/05 14:31:17;;;;;;;;;4.67;3.67;;;;;13.16;62.09;101465.56;5090956;27;45534;-65
2022/11/05 14:34:06;;;;;;;;;6.33;4.33;;;;;13.16;61.81;101484.84;5087895;27;45545;-63
2022/11/05 14:36:35;;;;;;;;;4.33;3.00;;;;;13.21;61.81;101489.25;5045591;27;45510;-65
2022/11/05 14:39:30;;;;;;;;;6.67;5.00;;;;;13.20;61.86;101487.53;5115935;27;45789;-63
2022/11/05 14:42:15;;;;;;;;;4.67;4.00;;;;;13.18;62.07;101491.91;5085943;27;47658;-64
2022/11/05 14:45:00;;;;;;;;;5.33;4.33;;;;;13.17;62.42;101496.28;5084313;27;45412;-65
2022/11/05 14:47:29;;;;;;;;;9.00;4.00;;;;;13.19;62.41;101485.75;5084603;27;45452;-62
2022/11/05 14:50:06;;;;;;;;;3.33;3.33;;;;;13.12;62.10;101464.72;5087803;27;45582;-65
2022/11/05 14:52:32;;;;;;;;;4.33;3.00;;;;;13.15;61.75;101467.34;5085307;27;46156;-64
2022/11/05 14:54:58;;;;;;;;;6.67;4.67;;;;;13.24;62.06;101462.97;5119619;27;45522;-65
2022/11/05 14:57:42;;;;;;;;;4.00;4.00;;;;;13.13;62.38;101444.53;5090317;27;45574;-64
2022/11/05 15:00:39;;;;;;;;;13.50;11.75;;;;;13.15;62.39;101454.19;5090210;27;46414;-64
2022/11/05 15:03:27;;;;;;;;;5.67;4.67;;;;;13.03;62.72;101455.91;5081184;27;46309;-63
2022/11/05 15:06:03;;;;;;;;;4.33;4.33;;;;;12.91;62.44;101438.34;5081888;27;45546;-63
2022/11/05 15:08:34;;;;;;;;;5.67;4.00;;;;;13.05;62.63;101462.03;5086237;27;45559;-64
2022/11/05 15:11:32;;;;;;;;;3.00;3.00;;;;;12.97;62.66;101433.09;5072910;27;45427;-63
2022/11/05 15:14:15;;;;;;;;;4.67;4.00;;;;;13.10;62.21;101448.03;5064033;27;46131;-63
2022/11/05 15:16:50;;;;;;;;;9.33;5.67;;;;;13.07;62.72;101439.25;5072576;27;45440;-63
2022/11/05 15:19:34;;;;;;;;;8.00;5.67;;;;;12.91;63.37;101425.19;5073798;27;45667;-65
2022/11/05 15:22:04;;;;;;;;;4.00;4.00;;;;;12.88;63.72;101459.34;5067298;28;45465;-63
2022/11/05 15:24:36;;;;;;;;;5.67;4.00;;;;;12.90;63.55;101465.47;5072780;27;46586;-62
2022/11/05 15:27:20;;;;;;;;;8.33;6.00;;;;;12.91;64.18;101468.13;5074521;27;45556;-64
2022/11/05 15:29:45;;;;;;;;;4.33;4.33;;;;;12.78;64.21;101458.41;5077129;27;45251;-62
2022/11/05 15:32:22;;;;;;;;;6.00;6.00;;;;;12.75;64.96;101460.19;5077750;27;45492;-63
2022/11/05 15:34:53;;;;;;;;;4.33;4.33;;;;;12.59;65.57;101448.69;5074661;28;45466;-64
2022/11/05 15:37:22;;;;;;;;;6.67;4.00;;;;;12.52;65.37;101434.66;5073717;27;45725;-64
2022/11/05 15:39:50;;;;;;;;;4.00;4.00;;;;;12.51;65.54;101441.66;5071146;27;45513;-63
2022/11/05 15:42:21;;;;;;;;;8.33;5.00;;;;;12.61;65.48;101460.97;5071602;28;45551;-63
2022/11/05 15:44:55;;;;;;;;;4.33;4.33;;;;;12.63;65.36;101468.88;5072341;27;45791;-66
2022/11/05 15:47:21;;;;;;;;;6.33;4.67;;;;;12.73;65.36;101470.66;5076678;27;45510;-64
2022/11/05 15:49:55;;;;;;;;;5.00;5.00;;;;;12.72;65.19;101463.66;5075408;27;45495;-63
2022/11/05 15:52:32;;;;;;;;;6.00;4.67;;;;;12.60;65.39;101463.59;5076096;28;45377;-63
2022/11/05 15:55:13;;;;;;;;;6.67;6.67;;;;;12.51;65.73;101467.94;5072941;27;45483;-63
2022/11/05 15:57:45;;;;;;;;;8.33;7.67;;;;;12.30;66.04;101446.78;5069667;27;45969;-63
2022/11/05 16:00:20;;;;;;;;;9.00;9.00;;;;;12.17;66.79;101463.31;5071607;28;45534;-63
2022/11/05 16:03:32;;;;;;;;;8.25;7.25;;;;;12.11;67.24;101458.03;5072239;28;45472;-62
2022/11/05 16:06:00;;;;;;;;;9.50;8.00;;;;;12.06;67.46;101443.13;5060540;27;47079;-62
2022/11/05 16:08:28;;;;;;;;;7.75;7.75;;;;;12.09;67.67;101452.78;5070450;27;45523;-65
2022/11/05 16:10:58;;;;;;;;;6.00;6.00;;;;;11.99;67.65;101436.06;5072886;27;45524;-63
2022/11/05 16:13:35;;;;;;;;;8.00;7.25;;;;;12.05;67.90;101458.84;5072740;27;45406;-65
2022/11/05 16:16:09;;;;;;;;;17.50;11.25;;;;;11.95;68.14;101460.53;5075000;27;46408;-68
2022/11/05 16:18:39;;;;;;;;;9.00;7.00;;;;;11.97;68.07;101465.81;5071971;27;45424;-64
2022/11/05 16:21:06;;;;;;;;;7.25;7.25;;;;;11.97;67.94;101469.31;5071401;27;46216;-65
2022/11/05 16:23:47;;;;;;;;;10.25;6.25;;;;;11.96;67.86;101464.94;5074196;28;45835;-63
2022/11/05 16:26:37;;;;;;;;;6.50;6.50;;;;;11.97;67.88;101461.44;5076704;27;45641;-63
2022/11/05 16:29:31;;;;;;;;;14.00;9.50;;;;;11.99;68.01;101470.22;5091431;27;45548;-64
2022/11/05 16:31:59;;;;;;;;;11.00;8.25;;;;;11.96;68.40;101453.53;5072801;28;45570;-63
2022/11/05 16:34:34;;;;;;;;;8.75;8.75;;;;;11.92;68.30;101462.28;5072768;27;45431;-61
2022/11/05 16:37:00;;;;;;;;;15.75;11.50;;;;;11.81;68.57;101460.38;5072144;27;46283;-62
2022/11/05 16:39:26;;;;;;;;;12.25;8.50;;;;;11.68;68.72;101451.53;5072603;27;45388;-61
2022/11/05 16:41:52;;;;;;;;;9.00;8.00;;;;;11.71;68.85;101458.56;5075470;27;45854;-63
2022/11/05 16:44:21;;;;;;;;;10.00;10.00;;;;;11.67;68.65;101454.13;5074346;28;45652;-62
2022/11/05 16:46:48;;;;;;;;;9.75;9.75;;;;;11.58;68.42;101444.47;5070052;27;47598;-62
2022/11/05 16:49:14;;;;;;;;;13.25;9.25;;;;;11.55;68.58;101441.78;5073237;27;45786;-62
2022/11/05 16:51:40;;;;;;;;;11.50;9.50;;;;;11.54;68.86;101445.28;5073713;27;45502;-63
2022/11/05 16:54:06;;;;;;;;;11.50;10.50;;;;;11.45;68.80;101432.94;5073973;28;45560;-64
2022/11/05 16:56:32;;;;;;;;;7.50;7.50;;;;;11.48;69.21;101445.22;5073626;27;45522;-63
2022/11/05 16:58:58;;;;;;;;;14.25;9.25;;;;;11.47;69.04;101435.59;5074109;27;45636;-62
2022/11/05 17:01:24;;;;;;;;;13.75;11.50;;;;;11.40;69.04;101428.53;5073797;28;45464;-62
2022/11/05 17:03:51;;;;;;;;;12.75;10.00;;;;;11.45;68.99;101430.31;5076355;28;45416;-66
2022/11/05 17:06:19;;;;;;;;;13.75;11.00;;;;;11.40;69.28;101432.03;5076156;27;46509;-62
2022/11/05 17:08:45;;;;;;;;;12.75;9.75;;;;;11.40;68.86;101432.03;5076058;28;46209;-61
2022/11/05 17:11:14;;;;;;;;;13.75;10.25;;;;;11.39;69.32;101434.63;5077754;27;46135;-64
2022/11/05 17:13:40;;;;;;;;;10.00;9.75;;;;;11.41;69.12;101433.81;5074762;28;45779;-64
2022/11/05 17:16:09;;;;;;;;;13.75;9.00;;;;;11.47;69.36;101438.22;5073083;27;46059;-63
2022/11/05 17:18:35;;;;;;;;;14.00;9.25;;;;;11.39;69.29;101418.91;5073155;27;45472;-63
2022/11/05 17:21:01;;;;;;;;;13.25;11.00;;;;;11.48;68.36;101437.34;5073943;27;45581;-63
2022/11/05 17:23:28;;;;;;;;;7.75;7.00;;;;;11.46;68.44;101433.84;5074277;28;45583;-63
2022/11/05 17:26:00;;;;;;;;;13.25;10.25;;;;;11.32;68.93;101415.34;5073321;27;46969;-63
2022/11/05 17:28:26;;;;;;;;;11.75;9.00;;;;;11.41;69.27;101431.19;5075949;28;45406;-63
2022/11/05 17:30:51;;;;;;;;;16.25;10.00;;;;;11.33;69.11;101430.22;5089145;27;45884;-63
2022/11/05 17:33:18;;;;;;;;;12.50;9.50;;;;;11.33;69.29;101438.09;5072530;27;45609;-65
2022/11/05 17:35:44;;;;;;;;;12.50;10.50;;;;;11.34;69.19;101446.81;5073803;27;45451;-64
2022/11/05 17:38:11;;;;;;;;;12.50;9.50;;;;;11.25;69.60;101434.53;5071638;27;45427;-63
2022/11/05 17:40:38;;;;;;;;;10.50;10.50;;;;;11.25;70.10;101448.50;5073487;27;45398;-67
2022/11/05 17:43:04;;;;;;;;;16.25;11.25;;;;;11.23;69.87;101444.97;5073579;28;45372;-65
2022/11/05 17:45:29;;;;;;;;;14.50;9.50;;;;;11.07;69.88;101415.97;5076159;27;46210;-63
2022/11/05 17:47:55;;;;;;;;;12.50;10.00;;;;;11.36;69.83;101466.09;5075709;27;45343;-65
2022/11/05 17:50:21;;;;;;;;;15.25;10.50;;;;;11.32;69.24;101444.22;5072730;27;45484;-63
2022/11/05 17:52:46;;;;;;;;;15.25;11.50;;;;;11.33;69.82;101450.31;5074131;27;45718;-63
2022/11/05 17:55:16;;;;;;;;;15.50;14.25;;;;;11.28;70.11;101447.66;5074826;27;46060;-63
2022/11/05 17:57:51;;;;;;;;;21.75;16.00;;;;;11.23;69.85;101460.72;5075083;28;45381;-63
2022/11/05 18:00:22;;;;;;;;;12.25;12.00;;;;;11.22;70.36;101481.66;5073782;28;45350;-65
2022/11/05 18:02:50;;;;;;;;;14.25;10.75;;;;;11.19;70.53;101473.78;5077248;28;45421;-65
2022/11/05 18:05:17;;;;;;;;;15.00;12.75;;;;;11.10;70.93;101477.16;5071274;28;45799;-65
2022/11/05 18:07:43;;;;;;;;;15.25;10.75;;;;;11.07;70.91;101465.78;5071456;27;45496;-63
2022/11/05 18:10:09;;;;;;;;;9.25;7.25;;;;;11.04;71.31;101459.63;5072903;27;45804;-63
2022/11/05 18:12:35;;;;;;;;;13.75;12.25;;;;;11.08;71.03;101462.28;5072973;27;45619;-63
2022/11/05 18:15:01;;;;;;;;;11.50;9.50;;;;;11.07;70.97;101453.53;5072781;27;45460;-62
2022/11/05 18:17:27;;;;;;;;;13.50;9.50;;;;;11.12;70.89;101445.72;5072863;27;45517;-62
2022/11/05 18:19:52;;;;;;;;;14.00;11.50;;;;;11.04;70.90;101438.66;5072700;28;45418;-67
2022/11/05 18:22:18;;;;;;;;;12.25;10.25;;;;;11.11;71.29;101452.72;5071301;27;45513;-66
2022/11/05 18:24:45;;;;;;;;;15.50;12.25;;;;;11.16;70.98;101453.66;5070640;27;47591;-64
2022/11/05 18:27:10;;;;;;;;;17.75;9.00;;;;;11.24;70.98;101462.47;5071728;28;45853;-67
2022/11/05 18:29:36;;;;;;;;;14.00;12.25;;;;;11.30;70.77;101456.41;5060360;27;45567;-65
2022/11/05 18:32:02;;;;;;;;;16.50;14.00;;;;;11.23;70.49;101465.09;5036857;27;45724;-64
2022/11/05 18:34:28;;;;;;;;;12.75;11.50;;;;;11.28;70.84;101479.13;5068670;27;46328;-65
2022/11/05 18:36:54;;;;;;;;;14.75;11.50;;;;;11.32;70.29;101469.53;5104914;27;45475;-64
2022/11/05 18:39:20;;;;;;;;;13.75;12.50;;;;;11.30;70.67;101466.91;5068734;27;45558;-63
2022/11/05 18:41:45;;;;;;;;;15.50;11.25;;;;;11.38;70.38;101474.84;5067415;28;46593;-65
2022/11/05 18:44:13;;;;;;;;;15.00;12.50;;;;;11.38;70.66;101465.22;5068835;27;45549;-63
2022/11/05 18:46:40;;;;;;;;;16.25;12.00;;;;;11.38;70.75;101460.00;5070427;27;45907;-62
2022/11/05 18:49:06;;;;;;;;;12.25;12.25;;;;;11.40;70.66;101452.16;5073540;27;45481;-65
2022/11/05 18:51:31;;;;;;;;;14.75;13.50;;;;;11.34;70.69;101449.44;5074555;27;45625;-63
2022/11/05 18:53:58;;;;;;;;;17.50;15.00;;;;;11.28;70.78;101442.41;5072525;27;45527;-64
2022/11/05 18:56:24;;;;;;;;;17.00;13.50;;;;;11.09;71.21;101404.63;5072688;27;45452;-65
2022/11/05 18:58:51;;;;;;;;;24.75;19.50;;;;;11.00;71.10;101389.66;5071863;27;46369;-63
2022/11/05 19:01:20;;;;;;;;;17.75;15.50;;;;;11.26;71.27;101438.88;5071402;27;45994;-66
2022/11/05 19:03:48;;;;;;;;;17.25;15.25;;;;;11.19;71.10;101426.56;5070765;28;48081;-65
2022/11/05 19:06:16;;;;;;;;;17.00;14.50;;;;;11.25;71.44;101435.41;5069873;27;45579;-64
2022/11/05 19:08:42;;;;;;;;;18.50;15.75;;;;;11.14;71.42;101416.03;5069936;27;45610;-65
2022/11/05 19:11:16;;;;;;;;;18.00;16.00;;;;;11.16;72.21;101427.44;5070324;28;45512;-63
2022/11/05 19:13:42;;;;;;;;;19.00;17.25;;;;;11.10;72.40;101423.84;5037219;27;46511;-63
2022/11/05 19:16:19;;;;;;;;;13.75;12.75;;;;;11.12;72.06;101436.09;5041093;27;45635;-64
2022/11/05 19:18:46;;;;;;;;;20.00;16.25;;;;;11.13;72.21;101443.13;5074464;27;45236;-64
2022/11/05 19:21:15;;;;;;;;;20.50;16.50;;;;;11.07;72.30;101442.19;5073114;27;45505;-64
2022/11/05 19:23:40;;;;;;;;;24.75;20.50;;;;;11.11;72.73;101434.38;5071146;28;45471;-65
2022/11/05 19:26:12;;;;;;;;;18.50;15.00;;;;;11.12;72.29;101428.25;5075329;27;45823;-67
2022/11/05 19:28:38;;;;;;;;;18.50;16.50;;;;;11.09;72.02;101427.34;5086326;27;45443;-63
2022/11/05 19:31:03;;;;;;;;;17.25;15.25;;;;;10.98;72.60;101408.88;5071479;27;45952;-69
2022/11/05 19:33:30;;;;;;;;;19.00;16.50;;;;;11.07;72.64;101429.06;5072166;28;46723;-65
2022/11/05 19:35:55;;;;;;;;;19.00;18.25;;;;;10.96;72.65;101419.34;5072105;27;45578;-64
2022/11/05 19:38:25;;;;;;;;;25.75;18.25;;;;;11.01;72.45;101427.28;5071232;27;45414;-69
2022/11/05 19:40:51;;;;;;;;;21.50;16.50;;;;;11.01;72.90;101427.28;5028500;27;45508;-65
2022/11/05 19:43:17;;;;;;;;;16.50;15.75;;;;;11.04;72.73;101420.31;5069906;27;46362;-66
2022/11/05 19:45:43;;;;;;;;;21.50;19.75;;;;;11.01;72.71;101409.78;5071380;27;45431;-64
2022/11/05 19:48:08;;;;;;;;;21.75;17.50;;;;;11.02;72.19;101413.28;5071044;27;45447;-68
2022/11/05 19:50:41;;;;;;;;;15.00;13.00;;;;;10.96;73.09;101415.81;5070566;28;45547;-65
2022/11/05 19:53:08;;;;;;;;;17.00;17.00;;;;;10.92;72.82;101416.69;5069597;27;46723;-63
2022/11/05 19:55:39;;;;;;;;;18.75;16.25;;;;;10.89;72.87;101417.53;5070719;27;45655;-68
2022/11/05 19:58:06;;;;;;;;;14.00;12.50;;;;;10.91;72.68;101414.91;5072804;27;45515;-67
2022/11/05 20:00:31;;;;;;;;;10.25;8.00;;;;;10.98;72.56;101432.47;5073444;28;45589;-66
2022/11/05 20:02:57;;;;;;;;;17.25;13.00;;;;;11.01;72.43;101429.91;5073093;27;46303;-65
2022/11/05 20:05:22;;;;;;;;;20.50;17.75;;;;;11.01;72.38;101408.94;5071974;27;45463;-64
2022/11/05 20:07:48;;;;;;;;;24.50;20.25;;;;;11.14;71.95;101418.66;5069864;27;45736;-64
2022/11/05 20:10:14;;;;;;;;;24.00;19.00;;;;;11.16;72.05;101426.56;5059324;27;45557;-64
2022/11/05 20:12:39;;;;;;;;;14.00;13.50;;;;;11.18;71.85;101423.09;5064959;27;45974;-63
2022/11/05 20:15:05;;;;;;;;;13.50;12.00;;;;;11.17;72.24;101402.94;5070719;27;45958;-64
2022/11/05 20:17:31;;;;;;;;;12.75;12.75;;;;;11.19;71.84;101389.88;5068076;27;45588;-62
2022/11/05 20:19:57;;;;;;;;;15.00;14.75;;;;;11.29;71.38;101393.44;5021403;27;45565;-64
2022/11/05 20:22:23;;;;;;;;;14.75;12.75;;;;;11.31;71.42;101399.59;5012882;28;45819;-65
2022/11/05 20:24:49;;;;;;;;;14.25;13.00;;;;;11.31;71.46;101405.72;5013453;28;46470;-68
2022/11/05 20:27:15;;;;;;;;;21.75;15.00;;;;;11.25;71.53;101408.28;5013971;28;45554;-65
2022/11/05 20:29:40;;;;;;;;;13.00;12.00;;;;;11.20;71.93;101400.38;5029961;28;45841;-65
2022/11/05 20:32:06;;;;;;;;;16.50;13.00;;;;;11.16;71.79;101406.44;5014482;28;46024;-67
2022/11/05 20:34:33;;;;;;;;;14.50;13.00;;;;;11.07;71.78;101395.88;5014438;28;45918;-64
2022/11/05 20:37:00;;;;;;;;;17.00;14.50;;;;;11.13;71.94;101393.31;4979044;28;46359;-66
2022/11/05 20:39:25;;;;;;;;;14.50;12.75;;;;;11.04;71.73;101375.75;5026170;28;45563;-64
2022/11/05 20:41:52;;;;;;;;;16.00;15.00;;;;;10.99;71.85;101377.44;5007720;28;45893;-64
2022/11/05 20:44:18;;;;;;;;;18.25;13.25;;;;;10.96;72.57;101382.66;5008184;28;45954;-66
2022/11/05 20:46:43;;;;;;;;;19.50;14.25;;;;;10.95;72.30;101383.50;5008693;28;45434;-67
2022/11/05 20:49:09;;;;;;;;;15.75;12.25;;;;;10.93;72.27;101392.22;4991332;28;45503;-63
2022/11/05 20:51:34;;;;;;;;;17.75;14.00;;;;;11.03;72.35;101407.16;5007610;28;46901;-65
2022/11/05 20:54:01;;;;;;;;;16.00;11.75;;;;;11.04;72.56;101406.31;5014051;28;45628;-65
2022/11/05 20:56:30;;;;;;;;;19.75;15.75;;;;;11.09;72.58;101393.28;5014698;28;45354;-63
2022/11/05 20:58:57;;;;;;;;;19.00;13.75;;;;;11.08;72.22;101381.91;5011747;28;45335;-64
2022/11/05 21:01:23;;;;;;;;;14.75;12.50;;;;;11.10;72.22;101392.41;5013113;28;47858;-64
2022/11/05 21:03:48;;;;;;;;;17.00;14.00;;;;;11.11;72.13;101391.53;4998792;28;45871;-63
2022/11/05 21:06:15;;;;;;;;;22.75;18.75;;;;;11.04;72.22;101377.50;5011911;28;45526;-64
2022/11/05 21:08:40;;;;;;;;;21.00;18.00;;;;;11.04;71.92;101373.13;5012672;28;45614;-61
2022/11/05 21:11:07;;;;;;;;;15.75;14.00;;;;;11.12;71.96;101393.28;4977677;28;46226;-62
2022/11/05 21:13:32;;;;;;;;;14.00;12.25;;;;;11.11;72.32;101396.78;5008976;28;45304;-64
2022/11/05 21:15:59;;;;;;;;;15.75;14.50;;;;;11.11;72.02;101402.03;5011957;28;45982;-64
2022/11/05 21:18:29;;;;;;;;;18.25;15.75;;;;;11.08;72.03;101397.63;5013886;28;45485;-63
2022/11/05 21:20:55;;;;;;;;;17.00;14.25;;;;;11.03;72.01;101378.34;5014336;28;46401;-64
2022/11/05 21:23:21;;;;;;;;;21.25;13.25;;;;;11.03;72.47;101387.09;5010956;28;45375;-62
2022/11/05 21:25:47;;;;;;;;;19.50;16.25;;;;;10.98;72.46;101373.03;4994990;28;45519;-65
2022/11/05 21:28:14;;;;;;;;;22.50;14.25;;;;;11.06;72.53;101377.47;4999283;28;46732;-64
2022/11/05 21:30:43;;;;;;;;;17.50;13.00;;;;;11.04;71.97;101378.38;5009921;28;46731;-65
2022/11/05 21:33:10;;;;;;;;;11.50;11.50;;;;;10.99;72.10;101366.09;5007176;28;46726;-65
2022/11/05 21:35:42;;;;;;;;;18.50;14.00;;;;;11.00;72.24;101357.34;4987023;28;45835;-65
2022/11/05 21:38:08;;;;;;;;;15.00;13.25;;;;;10.96;72.39;101351.22;5009294;28;45622;-63
2022/11/05 21:40:34;;;;;;;;;14.75;13.00;;;;;10.98;72.63;101349.44;5008538;28;48025;-63
2022/11/05 21:42:59;;;;;;;;;14.75;13.00;;;;;10.91;72.68;101352.00;5009271;28;45725;-64
2022/11/05 21:45:25;;;;;;;;;16.00;11.25;;;;;11.01;72.54;101370.47;5009618;28;45596;-63
2022/11/05 21:47:51;;;;;;;;;17.50;13.25;;;;;11.01;72.24;101359.13;5009247;28;45414;-64
2022/11/05 21:50:16;;;;;;;;;16.25;12.75;;;;;11.01;72.37;101366.97;5009839;28;45461;-63
2022/11/05 22:01:00;;;;;;;;;16.75;12.50;;;;;11.09;72.17;101372.28;5008709;28;45855;-65
2022/11/05 22:03:26;;;;;;;;;50.75;38.25;;;;;11.06;72.25;101359.13;5010595;28;45965;-64
2022/11/05 22:05:54;;;;;;;;;19.00;14.50;;;;;11.08;72.45;101363.56;5009195;28;45605;-64
2022/11/05 22:08:20;;;;;;;;;14.00;13.00;;;;;11.09;72.02;101361.81;5009366;28;46109;-62
2022/11/05 22:10:45;;;;;;;;;17.25;14.00;;;;;11.11;71.68;101358.34;5007869;28;45652;-62
2022/11/05 22:13:11;;;;;;;;;16.25;13.00;;;;;11.12;72.16;101346.09;5008138;28;45528;-63
2022/11/05 22:15:36;;;;;;;;;12.50;9.75;;;;;11.11;72.54;101340.00;5012207;28;45465;-65
2022/11/05 22:18:02;;;;;;;;;13.50;11.00;;;;;11.11;72.08;101339.13;5012916;28;45383;-67
2022/11/05 22:20:28;;;;;;;;;16.00;13.75;;;;;11.09;72.02;101348.69;5014932;28;46248;-63
2022/11/05 22:22:53;;;;;;;;;11.75;11.25;;;;;11.06;72.06;101325.97;5016655;28;45513;-63
2022/11/05 22:25:19;;;;;;;;;13.50;11.00;;;;;11.02;71.65;101306.69;5011472;28;45411;-64
2022/11/05 22:27:45;;;;;;;;;15.75;12.25;;;;;11.07;71.89;101313.72;5012174;28;45684;-64
2022/11/05 22:30:12;;;;;;;;;16.50;12.00;;;;;10.99;72.08;101301.44;5010776;28;45665;-64
2022/11/05 22:32:38;;;;;;;;;9.00;9.00;;;;;11.04;72.43;101318.06;5011568;28;45744;-64
2022/11/05 22:35:05;;;;;;;;;13.75;9.50;;;;;11.08;71.82;101319.00;5026523;28;45537;-65
2022/11/05 22:37:30;;;;;;;;;13.50;12.25;;;;;11.12;71.39;101333.88;5012373;28;45306;-63
2022/11/05 22:39:56;;;;;;;;;9.25;9.00;;;;;11.18;72.07;101347.03;5012499;28;45728;-63
2022/11/05 22:42:24;;;;;;;;;10.50;9.25;;;;;11.15;71.94;101331.28;5012273;28;45248;-64
2022/11/05 22:44:50;;;;;;;;;12.50;8.00;;;;;11.06;71.36;101301.47;4999915;28;45597;-65
2022/11/05 22:47:17;;;;;;;;;12.50;9.25;;;;;11.27;71.71;101335.78;5011652;28;45664;-64
2022/11/05 22:49:44;;;;;;;;;12.50;9.50;;;;;11.23;71.68;101331.34;5011009;28;46322;-63
2022/11/05 22:52:10;;;;;;;;;8.75;7.75;;;;;11.23;71.56;101324.38;5013551;28;45872;-65
2022/11/05 22:54:36;;;;;;;;;10.50;9.00;;;;;11.19;71.56;101321.69;5026803;28;45537;-63
2022/11/05 22:57:02;;;;;;;;;10.00;9.75;;;;;11.08;71.63;101294.50;5012738;28;45557;-62
2022/11/05 22:59:27;;;;;;;;;8.50;8.50;;;;;10.98;71.40;101286.53;5026724;28;45557;-64
2022/11/05 23:01:53;;;;;;;;;9.25;8.00;;;;;11.14;71.77;101308.53;5010697;28;45447;-63
2022/11/05 23:04:18;;;;;;;;;13.75;11.25;;;;;11.11;71.72;101297.16;5015428;28;45520;-66
2022/11/05 23:12:20;;;;;;;;;12.00;11.25;;;;;11.08;71.43;101270.91;5016430;28;45355;-63
2022/11/05 23:14:46;;;;;;;;;13.25;9.50;;;;;11.08;71.58;101270.91;5014607;28;45287;-64
2022/11/05 23:25:24;;;;;;;;;9.75;8.50;;;;;11.07;71.56;101285.75;5018893;28;45383;-64
2022/11/05 23:27:53;;;;;;;;;9.25;7.25;;;;;11.03;71.40;101284.88;5001665;28;45421;-64
2022/11/05 23:30:22;;;;;;;;;9.75;8.75;;;;;10.96;71.32;101269.97;5014231;28;45429;-64
2022/11/05 23:32:48;;;;;;;;;11.25;8.75;;;;;10.80;71.28;101253.22;5013891;28;45529;-64
2022/11/05 23:35:14;;;;;;;;;13.25;9.50;;;;;10.90;71.62;101275.13;5015447;28;45412;-63
2022/11/05 23:40:27;;;;;;;;;11.75;9.75;;;;;10.94;71.27;101282.16;5001601;28;45840;-63
2022/11/05 23:48:36;;;;;;;;;7.75;7.25;;;;;10.99;70.83;101267.34;5018561;28;45381;-65
2022/11/05 23:51:09;;;;;;;;;13.75;8.50;;;;;10.95;71.01;101255.06;5005669;28;45374;-62
2022/11/05 23:53:39;;;;;;;;;8.00;8.00;;;;;10.99;71.30;101262.09;5012290;28;45825;-64
2022/11/05 23:56:12;;;;;;;;;10.75;8.75;;;;;10.98;70.87;101256.84;5012812;28;45352;-66
2022/11/05 23:58:39;;;;;;;;;10.25;7.75;;;;;10.98;70.98;101276.06;5003515;28;45408;-65
